sensor_id;sensor_type;location;lat;lon;timestamp;pressure;altitude;pressure_sealevel;temperature;humidity
57801;BME280;43627;42.728;23.256;2023-06-14T00:00:14;94709.50;;;15.61;100.00
57801;BME280;43627;42.728;23.256;2023-06-14T00:02:42;94715.00;;;15.78;100.00
57801;BME280;43627;42.728;23.256;2023-06-14T00:05:09;94720.47;;;15.72;100.00
57801;BME280;43627;42.728;23.256;2023-06-14T00:07:37;94714.00;;;15.75;100.00
57801;BME280;43627;42.728;23.256;2023-06-14T00:10:05;94715.97;;;15.86;100.00
57801;BME280;43627;42.728;23.256;2023-06-14T00:12:32;94716.47;;;15.95;100.00
57801;BME280;43627;42.728;23.256;2023-06-14T00:14:59;94722.22;;;16.03;100.00
57801;BME280;43627;42.728;23.256;2023-06-14T00:17:28;94721.47;;;15.91;100.00
57801;BME280;43627;42.728;23.256;2023-06-14T00:19:58;94683.25;;;15.71;100.00
57801;BME280;43627;42.728;23.256;2023-06-14T00:22:25;94716.22;;;15.88;100.00
57801;BME280;43627;42.728;23.256;2023-06-14T00:24:52;94717.22;;;15.79;100.00
57801;BME280;43627;42.728;23.256;2023-06-14T00:27:21;94707.00;;;15.68;100.00
57801;BME280;43627;42.728;23.256;2023-06-14T00:29:48;94703.75;;;15.70;100.00
57801;BME280;43627;42.728;23.256;2023-06-14T00:32:15;94699.72;;;15.82;100.00
57801;BME280;43627;42.728;23.256;2023-06-14T00:34:42;94682.00;;;15.72;100.00
57801;BME280;43627;42.728;23.256;2023-06-14T00:37:08;94695.25;;;15.74;100.00
57801;BME280;43627;42.728;23.256;2023-06-14T00:39:35;94685.03;;;15.74;100.00
57801;BME280;43627;42.728;23.256;2023-06-14T00:42:02;94689.75;;;15.85;100.00
57801;BME280;43627;42.728;23.256;2023-06-14T00:44:29;94690.47;;;15.96;100.00
57801;BME280;43627;42.728;23.256;2023-06-14T00:46:56;94698.44;;;16.00;100.00
57801;BME280;43627;42.728;23.256;2023-06-14T00:49:23;94689.19;;;16.03;100.00
57801;BME280;43627;42.728;23.256;2023-06-14T00:51:51;94697.69;;;16.05;100.00
57801;BME280;43627;42.728;23.256;2023-06-14T00:54:18;94701.69;;;16.04;100.00
57801;BME280;43627;42.728;23.256;2023-06-14T00:56:44;94696.44;;;16.00;100.00
57801;BME280;43627;42.728;23.256;2023-06-14T00:59:12;94695.69;;;16.00;100.00
57801;BME280;43627;42.728;23.256;2023-06-14T01:01:39;94690.47;;;15.96;100.00
57801;BME280;43627;42.728;23.256;2023-06-14T01:04:06;94696.94;;;15.99;100.00
57801;BME280;43627;42.728;23.256;2023-06-14T01:07:33;94690.94;;;16.00;100.00
57801;BME280;43627;42.728;23.256;2023-06-14T01:13:05;94681.97;;;15.89;100.00
57801;BME280;43627;42.728;23.256;2023-06-14T01:15:34;94688.50;;;15.86;100.00
57801;BME280;43627;42.728;23.256;2023-06-14T01:18:01;94694.53;;;15.73;100.00
57801;BME280;43627;42.728;23.256;2023-06-14T01:20:32;94700.75;;;15.79;100.00
57801;BME280;43627;42.728;23.256;2023-06-14T01:23:03;94691.00;;;15.78;100.00
57801;BME280;43627;42.728;23.256;2023-06-14T01:25:30;94688.50;;;15.80;100.00
57801;BME280;43627;42.728;23.256;2023-06-14T01:27:59;94702.97;;;15.92;100.00
57801;BME280;43627;42.728;23.256;2023-06-14T01:30:27;94683.97;;;15.94;100.00
57801;BME280;43627;42.728;23.256;2023-06-14T01:32:55;94690.94;;;16.00;100.00
57801;BME280;43627;42.728;23.256;2023-06-14T01:35:23;94691.22;;;15.91;100.00
57801;BME280;43627;42.728;23.256;2023-06-14T01:37:51;94689.00;;;15.84;100.00
57801;BME280;43627;42.728;23.256;2023-06-14T01:40:19;94688.50;;;15.75;100.00
57801;BME280;43627;42.728;23.256;2023-06-14T01:42:49;94683.25;;;15.71;100.00
57801;BME280;43627;42.728;23.256;2023-06-14T01:45:17;94695.25;;;15.74;100.00
57801;BME280;43627;42.728;23.256;2023-06-14T01:47:45;94675.00;;;15.60;100.00
57801;BME280;43627;42.728;23.256;2023-06-14T01:50:13;94694.03;;;15.63;100.00
57801;BME280;43627;42.728;23.256;2023-06-14T01:52:40;94697.75;;;15.71;100.00
57801;BME280;43627;42.728;23.256;2023-06-14T01:55:07;94694.50;;;15.62;100.00
57801;BME280;43627;42.728;23.256;2023-06-14T01:57:35;94701.25;;;15.66;100.00
57801;BME280;43627;42.728;23.256;2023-06-14T02:00:04;94692.00;;;15.69;100.00
57801;BME280;43627;42.728;23.256;2023-06-14T02:02:34;94711.28;;;15.64;100.00
57801;BME280;43627;42.728;23.256;2023-06-14T02:05:01;94709.75;;;15.74;100.00
57801;BME280;43627;42.728;23.256;2023-06-14T02:07:28;94717.22;;;15.79;100.00
57801;BME280;43627;42.728;23.256;2023-06-14T02:09:55;94717.25;;;15.68;100.00
57801;BME280;43627;42.728;23.256;2023-06-14T02:12:21;94712.97;;;15.73;100.00
57801;BME280;43627;42.728;23.256;2023-06-14T02:14:48;94718.00;;;15.63;100.00
57801;BME280;43627;42.728;23.256;2023-06-14T02:17:15;94730.25;;;15.62;100.00
57801;BME280;43627;42.728;23.256;2023-06-14T02:19:42;94714.25;;;15.55;100.00
57801;BME280;43627;42.728;23.256;2023-06-14T02:22:09;94716.00;;;15.47;100.00
57801;BME280;43627;42.728;23.256;2023-06-14T02:24:36;94727.72;;;15.47;100.00
57801;BME280;43627;42.728;23.256;2023-06-14T02:27:03;94729.47;;;15.45;100.00
57801;BME280;43627;42.728;23.256;2023-06-14T02:29:30;94730.47;;;15.41;100.00
57801;BME280;43627;42.728;23.256;2023-06-14T02:31:57;94733.47;;;15.49;100.00
57801;BME280;43627;42.728;23.256;2023-06-14T02:34:24;94728.97;;;15.52;100.00
57801;BME280;43627;42.728;23.256;2023-06-14T02:36:51;94725.72;;;15.53;100.00
57801;BME280;43627;42.728;23.256;2023-06-14T02:39:22;94714.50;;;15.62;100.00
57801;BME280;43627;42.728;23.256;2023-06-14T02:41:52;94683.25;;;15.43;100.00
57801;BME280;43627;42.728;23.256;2023-06-14T02:44:19;94722.00;;;15.73;100.00
57801;BME280;43627;42.728;23.256;2023-06-14T02:46:47;94683.75;;;15.41;100.00
57801;BME280;43627;42.728;23.256;2023-06-14T02:49:13;94704.00;;;15.50;100.00
57801;BME280;43627;42.728;23.256;2023-06-14T02:51:40;94701.25;;;15.55;100.00
57801;BME280;43627;42.728;23.256;2023-06-14T02:54:12;94709.22;;;15.53;100.00
57801;BME280;43627;42.728;23.256;2023-06-14T02:56:40;94706.25;;;15.46;100.00
57801;BME280;43627;42.728;23.256;2023-06-14T02:59:07;94722.22;;;15.58;100.00
57801;BME280;43627;42.728;23.256;2023-06-14T03:01:36;94716.72;;;15.58;100.00
57801;BME280;43627;42.728;23.256;2023-06-14T03:04:08;94730.22;;;15.56;100.00
57801;BME280;43627;42.728;23.256;2023-06-14T03:06:35;94731.47;;;15.55;100.00
57801;BME280;43627;42.728;23.256;2023-06-14T03:09:03;94719.25;;;15.62;100.00
57801;BME280;43627;42.728;23.256;2023-06-14T03:11:35;94730.25;;;15.62;100.00
57801;BME280;43627;42.728;23.256;2023-06-14T03:14:02;94738.75;;;15.64;100.00
57801;BME280;43627;42.728;23.256;2023-06-14T03:16:33;94740.22;;;15.59;100.00
57801;BME280;43627;42.728;23.256;2023-06-14T03:19:00;94741.97;;;15.57;100.00
57801;BME280;43627;42.728;23.256;2023-06-14T03:21:27;94747.72;;;15.59;100.00
57801;BME280;43627;42.728;23.256;2023-06-14T03:23:55;94757.72;;;15.56;100.00
57801;BME280;43627;42.728;23.256;2023-06-14T03:26:22;94753.94;;;15.54;100.00
57801;BME280;43627;42.728;23.256;2023-06-14T03:28:49;94749.72;;;15.58;100.00
57801;BME280;43627;42.728;23.256;2023-06-14T03:31:16;94750.19;;;15.51;100.00
57801;BME280;43627;42.728;23.256;2023-06-14T03:33:43;94746.94;;;15.53;100.00
57801;BME280;43627;42.728;23.256;2023-06-14T03:36:10;94752.97;;;15.57;100.00
57801;BME280;43627;42.728;23.256;2023-06-14T03:38:37;94751.94;;;15.49;100.00
57801;BME280;43627;42.728;23.256;2023-06-14T03:41:03;94734.72;;;15.42;100.00
57801;BME280;43627;42.728;23.256;2023-06-14T03:43:30;94750.22;;;15.46;100.00
57801;BME280;43627;42.728;23.256;2023-06-14T03:45:57;94744.97;;;15.48;100.00
57801;BME280;43627;42.728;23.256;2023-06-14T03:48:24;94735.72;;;15.45;100.00
57801;BME280;43627;42.728;23.256;2023-06-14T03:50:50;94739.75;;;15.66;100.00
57801;BME280;43627;42.728;23.256;2023-06-14T03:53:17;94739.72;;;15.78;100.00
57801;BME280;43627;42.728;23.256;2023-06-14T03:55:48;94743.22;;;15.95;100.00
57801;BME280;43627;42.728;23.256;2023-06-14T03:58:18;94750.44;;;16.04;100.00
57801;BME280;43627;42.728;23.256;2023-06-14T04:00:45;94751.69;;;16.14;100.00
57801;BME280;43627;42.728;23.256;2023-06-14T04:03:12;94742.66;;;16.30;100.00
57801;BME280;43627;42.728;23.256;2023-06-14T04:05:46;94750.34;;;16.37;100.00
57801;BME280;43627;42.728;23.256;2023-06-14T04:08:16;94745.81;;;16.51;100.00
57801;BME280;43627;42.728;23.256;2023-06-14T04:10:45;94745.47;;;16.77;100.00
57801;BME280;43627;42.728;23.256;2023-06-14T04:13:12;94753.72;;;16.88;100.00
57801;BME280;43627;42.728;23.256;2023-06-14T04:15:40;94752.41;;;16.95;100.00
57801;BME280;43627;42.728;23.256;2023-06-14T04:18:10;94753.91;;;16.96;100.00
57801;BME280;43627;42.728;23.256;2023-06-14T04:20:37;94756.34;;;17.05;100.00
57801;BME280;43627;42.728;23.256;2023-06-14T04:23:17;94767.25;;;17.27;100.00
57801;BME280;43627;42.728;23.256;2023-06-14T04:25:48;94764.84;;;17.12;100.00
57801;BME280;43627;42.728;23.256;2023-06-14T04:28:16;94760.25;;;17.26;100.00
57801;BME280;43627;42.728;23.256;2023-06-14T04:30:44;94759.50;;;17.26;100.00
57801;BME280;43627;42.728;23.256;2023-06-14T04:33:11;94759.88;;;17.41;100.00
57801;BME280;43627;42.728;23.256;2023-06-14T04:35:38;94769.03;;;17.60;100.00
57801;BME280;43627;42.728;23.256;2023-06-14T04:38:05;94760.44;;;17.75;100.00
57801;BME280;43627;42.728;23.256;2023-06-14T04:40:36;94761.38;;;17.83;100.00
57801;BME280;43627;42.728;23.256;2023-06-14T04:43:09;94744.91;;;18.02;100.00
57801;BME280;43627;42.728;23.256;2023-06-14T04:45:38;94770.78;;;18.23;100.00
57801;BME280;43627;42.728;23.256;2023-06-14T04:48:06;94770.22;;;18.31;100.00
57801;BME280;43627;42.728;23.256;2023-06-14T04:50:33;94777.50;;;18.77;100.00
57801;BME280;43627;42.728;23.256;2023-06-14T04:53:01;94773.13;;;19.06;100.00
57801;BME280;43627;42.728;23.256;2023-06-14T04:55:29;94781.19;;;19.23;100.00
57801;BME280;43627;42.728;23.256;2023-06-14T04:57:56;94783.94;;;19.41;100.00
57801;BME280;43627;42.728;23.256;2023-06-14T05:00:23;94779.75;;;19.54;100.00
57801;BME280;43627;42.728;23.256;2023-06-14T05:02:50;94792.31;;;19.55;100.00
57801;BME280;43627;42.728;23.256;2023-06-14T05:05:17;94779.00;;;19.53;100.00
57801;BME280;43627;42.728;23.256;2023-06-14T05:07:46;94777.97;;;19.56;100.00
57801;BME280;43627;42.728;23.256;2023-06-14T05:10:13;94794.31;;;19.73;100.00
57801;BME280;43627;42.728;23.256;2023-06-14T05:12:39;94790.53;;;19.57;100.00
57801;BME280;43627;42.728;23.256;2023-06-14T05:15:07;94793.66;;;19.67;100.00
57801;BME280;43627;42.728;23.256;2023-06-14T05:17:35;94798.09;;;19.89;100.00
57801;BME280;43627;42.728;23.256;2023-06-14T05:20:02;94802.25;;;19.95;100.00
57801;BME280;43627;42.728;23.256;2023-06-14T05:22:30;94806.72;;;19.98;100.00
57801;BME280;43627;42.728;23.256;2023-06-14T05:24:56;94805.03;;;19.95;100.00
57801;BME280;43627;42.728;23.256;2023-06-14T05:27:23;94811.00;;;19.67;100.00
57801;BME280;43627;42.728;23.256;2023-06-14T05:29:51;94816.91;;;19.58;100.00
57801;BME280;43627;42.728;23.256;2023-06-14T05:32:22;94825.66;;;19.44;100.00
57801;BME280;43627;42.728;23.256;2023-06-14T05:34:48;94823.69;;;19.20;100.00
57801;BME280;43627;42.728;23.256;2023-06-14T05:37:15;94824.38;;;19.07;100.00
57801;BME280;43627;42.728;23.256;2023-06-14T05:39:42;94831.38;;;19.08;100.00
57801;BME280;43627;42.728;23.256;2023-06-14T05:42:09;94827.09;;;18.88;100.00
57801;BME280;43627;42.728;23.256;2023-06-14T05:44:36;94818.13;;;18.82;100.00
57801;BME280;43627;42.728;23.256;2023-06-14T05:47:02;94823.41;;;18.80;100.00
57801;BME280;43627;42.728;23.256;2023-06-14T05:49:29;94815.44;;;18.76;100.00
57801;BME280;43627;42.728;23.256;2023-06-14T05:51:56;94814.22;;;18.72;100.00
57801;BME280;43627;42.728;23.256;2023-06-14T05:54:23;94819.28;;;18.68;100.00
57801;BME280;43627;42.728;23.256;2023-06-14T05:56:50;94824.00;;;18.73;100.00
57801;BME280;43627;42.728;23.256;2023-06-14T05:59:16;94829.63;;;18.62;100.00
57801;BME280;43627;42.728;23.256;2023-06-14T06:01:43;94824.66;;;18.54;100.00
57801;BME280;43627;42.728;23.256;2023-06-14T06:04:10;94824.13;;;18.56;100.00
57801;BME280;43627;42.728;23.256;2023-06-14T06:06:37;94816.97;;;18.72;100.00
57801;BME280;43627;42.728;23.256;2023-06-14T06:09:03;94818.28;;;18.90;100.00
57801;BME280;43627;42.728;23.256;2023-06-14T06:11:31;94822.19;;;19.00;100.00
57801;BME280;43627;42.728;23.256;2023-06-14T06:14:17;94819.59;;;19.07;100.00
57801;BME280;43627;42.728;23.256;2023-06-14T06:16:44;94832.94;;;19.22;100.00
57801;BME280;43627;42.728;23.256;2023-06-14T06:19:12;94830.28;;;19.35;100.00
57801;BME280;43627;42.728;23.256;2023-06-14T06:21:38;94820.78;;;19.31;100.00
57801;BME280;43627;42.728;23.256;2023-06-14T06:24:05;94830.13;;;19.47;100.00
57801;BME280;43627;42.728;23.256;2023-06-14T06:26:32;94838.19;;;19.45;100.00
57801;BME280;43627;42.728;23.256;2023-06-14T06:28:59;94829.38;;;19.46;100.00
57801;BME280;43627;42.728;23.256;2023-06-14T06:31:25;94837.53;;;19.38;100.00
57801;BME280;43627;42.728;23.256;2023-06-14T06:33:54;94838.94;;;19.26;100.00
57801;BME280;43627;42.728;23.256;2023-06-14T06:36:21;94839.25;;;19.60;100.00
57801;BME280;43627;42.728;23.256;2023-06-14T06:38:48;94839.63;;;19.70;100.00
57801;BME280;43627;42.728;23.256;2023-06-14T06:41:15;94844.50;;;19.96;100.00
57801;BME280;43627;42.728;23.256;2023-06-14T06:43:42;94849.41;;;20.22;100.00
57801;BME280;43627;42.728;23.256;2023-06-14T06:46:08;94844.28;;;20.58;100.00
57801;BME280;43627;42.728;23.256;2023-06-14T06:48:35;94841.41;;;20.90;100.00
57801;BME280;43627;42.728;23.256;2023-06-14T06:51:02;94848.03;;;21.14;100.00
57801;BME280;43627;42.728;23.256;2023-06-14T06:53:29;94842.59;;;21.08;100.00
57801;BME280;43627;42.728;23.256;2023-06-14T06:56:09;94842.00;;;21.49;100.00
57801;BME280;43627;42.728;23.256;2023-06-14T06:58:36;94847.66;;;21.57;100.00
57801;BME280;43627;42.728;23.256;2023-06-14T07:01:03;94843.03;;;21.73;100.00
57801;BME280;43627;42.728;23.256;2023-06-14T07:03:29;94839.72;;;22.29;100.00
57801;BME280;43627;42.728;23.256;2023-06-14T07:05:57;94841.00;;;23.06;100.00
57801;BME280;43627;42.728;23.256;2023-06-14T07:08:23;94827.09;;;22.77;100.00
57801;BME280;43627;42.728;23.256;2023-06-14T07:10:50;94839.00;;;22.57;100.00
57801;BME280;43627;42.728;23.256;2023-06-14T07:13:17;94841.59;;;22.84;100.00
57801;BME280;43627;42.728;23.256;2023-06-14T07:15:44;94840.56;;;23.30;100.00
57801;BME280;43627;42.728;23.256;2023-06-14T07:18:10;94827.81;;;23.35;99.59
57801;BME280;43627;42.728;23.256;2023-06-14T07:20:41;94850.38;;;23.60;93.98
57801;BME280;43627;42.728;23.256;2023-06-14T07:23:09;94828.81;;;23.53;90.55
57801;BME280;43627;42.728;23.256;2023-06-14T07:25:37;94835.97;;;23.33;96.67
57801;BME280;43627;42.728;23.256;2023-06-14T07:28:04;94832.00;;;22.85;98.30
57801;BME280;43627;42.728;23.256;2023-06-14T07:30:31;94833.19;;;22.27;100.00
57801;BME280;43627;42.728;23.256;2023-06-14T07:32:57;94827.22;;;22.02;100.00
57801;BME280;43627;42.728;23.256;2023-06-14T07:35:24;94818.25;;;21.95;100.00
57801;BME280;43627;42.728;23.256;2023-06-14T07:37:51;94834.44;;;22.05;100.00
57801;BME280;43627;42.728;23.256;2023-06-14T07:40:19;94834.19;;;22.16;100.00
57801;BME280;43627;42.728;23.256;2023-06-14T07:42:45;94839.06;;;22.44;100.00
57801;BME280;43627;42.728;23.256;2023-06-14T07:45:13;94836.22;;;22.57;100.00
57801;BME280;43627;42.728;23.256;2023-06-14T07:47:41;94842.59;;;22.65;100.00
57801;BME280;43627;42.728;23.256;2023-06-14T07:50:08;94833.53;;;22.93;97.85
57801;BME280;43627;42.728;23.256;2023-06-14T07:52:35;94840.22;;;22.98;97.69
57801;BME280;43627;42.728;23.256;2023-06-14T07:55:02;94834.63;;;22.90;95.78
57801;BME280;43627;42.728;23.256;2023-06-14T07:57:29;94856.00;;;22.74;97.66
57801;BME280;43627;42.728;23.256;2023-06-14T07:59:56;94860.53;;;22.64;98.14
57801;BME280;43627;42.728;23.256;2023-06-14T08:02:22;94855.69;;;22.57;97.75
57801;BME280;43627;42.728;23.256;2023-06-14T08:04:49;94850.19;;;22.65;97.12
57801;BME280;43627;42.728;23.256;2023-06-14T08:07:16;94849.31;;;22.98;99.32
57801;BME280;43627;42.728;23.256;2023-06-14T08:09:43;94861.47;;;22.88;96.41
57801;BME280;43627;42.728;23.256;2023-06-14T08:12:09;94859.44;;;22.88;99.14
57801;BME280;43627;42.728;23.256;2023-06-14T08:14:39;94869.69;;;23.29;93.96
57801;BME280;43627;42.728;23.256;2023-06-14T08:17:08;94860.59;;;23.65;91.54
57801;BME280;43627;42.728;23.256;2023-06-14T08:19:35;94876.16;;;24.27;89.70
57801;BME280;43627;42.728;23.256;2023-06-14T08:22:02;94876.69;;;24.26;85.44
57801;BME280;43627;42.728;23.256;2023-06-14T08:24:30;94878.97;;;24.42;80.14
57801;BME280;43627;42.728;23.256;2023-06-14T08:26:57;94875.66;;;24.67;80.33
57801;BME280;43627;42.728;23.256;2023-06-14T08:29:24;94876.19;;;24.42;82.11
57801;BME280;43627;42.728;23.256;2023-06-14T08:31:50;94852.53;;;24.13;85.78
57801;BME280;43627;42.728;23.256;2023-06-14T08:34:17;94864.50;;;24.52;85.94
57801;BME280;43627;42.728;23.256;2023-06-14T08:36:44;94869.34;;;24.66;80.38
57801;BME280;43627;42.728;23.256;2023-06-14T08:39:11;94873.59;;;24.52;80.48
57801;BME280;43627;42.728;23.256;2023-06-14T08:41:38;94873.78;;;24.31;79.82
57801;BME280;43627;42.728;23.256;2023-06-14T08:44:04;94850.41;;;23.75;91.63
57801;BME280;43627;42.728;23.256;2023-06-14T08:46:33;94873.97;;;23.67;84.63
57801;BME280;43627;42.728;23.256;2023-06-14T08:49:01;94860.06;;;23.38;91.07
57801;BME280;43627;42.728;23.256;2023-06-14T08:51:30;94856.13;;;23.26;85.25
57801;BME280;43627;42.728;23.256;2023-06-14T08:54:00;94845.97;;;23.00;94.22
57801;BME280;43627;42.728;23.256;2023-06-14T08:56:28;94852.22;;;22.93;96.11
57801;BME280;43627;42.728;23.256;2023-06-14T08:58:57;94858.81;;;23.03;94.73
57801;BME280;43627;42.728;23.256;2023-06-14T09:01:27;94863.44;;;22.79;100.00
57801;BME280;43627;42.728;23.256;2023-06-14T09:03:54;94850.97;;;22.94;95.20
57801;BME280;43627;42.728;23.256;2023-06-14T09:06:23;94840.16;;;22.90;100.00
57801;BME280;43627;42.728;23.256;2023-06-14T09:08:51;94858.13;;;23.18;91.18
57801;BME280;43627;42.728;23.256;2023-06-14T09:11:18;94852.97;;;23.22;89.81
57801;BME280;43627;42.728;23.256;2023-06-14T09:13:46;94854.91;;;23.42;87.72
57801;BME280;43627;42.728;23.256;2023-06-14T09:16:13;94839.47;;;23.70;86.75
57801;BME280;43627;42.728;23.256;2023-06-14T09:18:44;94846.22;;;24.12;89.97
57801;BME280;43627;42.728;23.256;2023-06-14T09:21:15;94846.78;;;24.03;81.46
57801;BME280;43627;42.728;23.256;2023-06-14T09:23:44;94843.09;;;24.08;87.23
57801;BME280;43627;42.728;23.256;2023-06-14T09:26:18;94841.81;;;24.17;81.25
57801;BME280;43627;42.728;23.256;2023-06-14T09:28:50;94835.19;;;23.76;80.30
57801;BME280;43627;42.728;23.256;2023-06-14T09:31:18;94829.88;;;23.50;86.91
57801;BME280;43627;42.728;23.256;2023-06-14T09:33:49;94840.44;;;23.95;88.14
57801;BME280;43627;42.728;23.256;2023-06-14T09:38:57;94821.19;;;24.43;86.93
57801;BME280;43627;42.728;23.256;2023-06-14T09:41:34;94832.72;;;24.77;74.86
57801;BME280;43627;42.728;23.256;2023-06-14T09:44:02;94834.59;;;24.67;78.92
57801;BME280;43627;42.728;23.256;2023-06-14T09:46:36;94828.63;;;24.71;69.99
57801;BME280;43627;42.728;23.256;2023-06-14T09:49:04;94825.81;;;24.94;76.65
57801;BME280;43627;42.728;23.256;2023-06-14T09:51:32;94817.34;;;25.40;71.06
57801;BME280;43627;42.728;23.256;2023-06-14T09:54:03;94825.25;;;25.58;65.06
57801;BME280;43627;42.728;23.256;2023-06-14T09:56:37;94827.09;;;25.16;62.01
57801;BME280;43627;42.728;23.256;2023-06-14T09:59:05;94829.19;;;24.85;69.76
57801;BME280;43627;42.728;23.256;2023-06-14T10:01:36;94813.78;;;25.39;71.66
57801;BME280;43627;42.728;23.256;2023-06-14T10:04:09;94817.56;;;25.67;72.12
57801;BME280;43627;42.728;23.256;2023-06-14T10:06:40;94819.59;;;25.81;68.66
57801;BME280;43627;42.728;23.256;2023-06-14T10:09:09;94806.19;;;25.80;68.58
57801;BME280;43627;42.728;23.256;2023-06-14T10:11:36;94803.56;;;25.42;71.50
57801;BME280;43627;42.728;23.256;2023-06-14T10:14:05;94809.47;;;25.46;66.90
57801;BME280;43627;42.728;23.256;2023-06-14T10:19:18;94805.00;;;25.02;73.89
57801;BME280;43627;42.728;23.256;2023-06-14T10:22:19;94795.22;;;25.34;70.71
57801;BME280;43627;42.728;23.256;2023-06-14T10:24:49;94804.16;;;25.32;70.07
57801;BME280;43627;42.728;23.256;2023-06-14T10:27:16;94794.66;;;25.76;62.47
57801;BME280;43627;42.728;23.256;2023-06-14T10:32:20;94790.94;;;26.06;60.41
57801;BME280;43627;42.728;23.256;2023-06-14T10:34:56;94787.56;;;26.32;62.95
57801;BME280;43627;42.728;23.256;2023-06-14T10:37:23;94787.56;;;26.57;61.29
57801;BME280;43627;42.728;23.256;2023-06-14T10:39:51;94786.38;;;26.43;58.05
57801;BME280;43627;42.728;23.256;2023-06-14T10:42:18;94784.97;;;26.09;56.18
57801;BME280;43627;42.728;23.256;2023-06-14T10:44:49;94790.16;;;26.38;55.90
57801;BME280;43627;42.728;23.256;2023-06-14T10:50:03;94767.03;;;26.12;56.16
57801;BME280;43627;42.728;23.256;2023-06-14T10:52:42;94769.50;;;26.08;56.51
57801;BME280;43627;42.728;23.256;2023-06-14T10:55:16;94763.81;;;25.99;59.70
57801;BME280;43627;42.728;23.256;2023-06-14T10:57:54;94765.81;;;26.06;57.56
57801;BME280;43627;42.728;23.256;2023-06-14T11:00:27;94763.94;;;25.35;61.15
57801;BME280;43627;42.728;23.256;2023-06-14T11:05:56;94763.75;;;24.63;73.11
57801;BME280;43627;42.728;23.256;2023-06-14T11:11:32;94762.28;;;24.54;69.74
57801;BME280;43627;42.728;23.256;2023-06-14T11:14:00;94756.31;;;24.73;71.30
57801;BME280;43627;42.728;23.256;2023-06-14T11:16:28;94725.19;;;24.99;70.19
57801;BME280;43627;42.728;23.256;2023-06-14T11:18:55;94738.63;;;25.41;69.16
57801;BME280;43627;42.728;23.256;2023-06-14T11:21:24;94733.81;;;25.34;64.22
57801;BME280;43627;42.728;23.256;2023-06-14T11:23:52;94742.03;;;25.32;66.71
57801;BME280;43627;42.728;23.256;2023-06-14T11:26:27;94736.66;;;25.19;63.69
57801;BME280;43627;42.728;23.256;2023-06-14T11:28:58;94737.97;;;25.18;64.76
57801;BME280;43627;42.728;23.256;2023-06-14T11:31:27;94728.19;;;24.94;66.14
57801;BME280;43627;42.728;23.256;2023-06-14T11:33:58;94733.25;;;24.80;64.05
57801;BME280;43627;42.728;23.256;2023-06-14T11:36:29;94735.47;;;24.89;68.36
57801;BME280;43627;42.728;23.256;2023-06-14T11:38:58;94739.31;;;25.01;68.60
57801;BME280;43627;42.728;23.256;2023-06-14T11:41:25;94732.72;;;25.29;64.94
57801;BME280;43627;42.728;23.256;2023-06-14T11:43:54;94730.06;;;25.39;65.30
57801;BME280;43627;42.728;23.256;2023-06-14T11:46:21;94735.16;;;25.25;64.32
57801;BME280;43627;42.728;23.256;2023-06-14T11:48:51;94728.94;;;24.94;65.12
57801;BME280;43627;42.728;23.256;2023-06-14T11:51:19;94718.41;;;24.70;67.62
57801;BME280;43627;42.728;23.256;2023-06-14T11:53:46;94696.69;;;24.68;70.63
57801;BME280;43627;42.728;23.256;2023-06-14T11:56:13;94711.41;;;25.49;78.16
57801;BME280;43627;42.728;23.256;2023-06-14T11:58:44;94720.41;;;25.73;62.56
57801;BME280;43627;42.728;23.256;2023-06-14T12:01:16;94719.94;;;25.84;55.84
57801;BME280;43627;42.728;23.256;2023-06-14T12:03:49;94706.88;;;26.11;55.38
57801;BME280;43627;42.728;23.256;2023-06-14T12:06:25;94701.19;;;26.02;55.45
57801;BME280;43627;42.728;23.256;2023-06-14T12:08:56;94686.91;;;26.40;53.72
57801;BME280;43627;42.728;23.256;2023-06-14T12:11:23;94686.63;;;26.28;51.52
57801;BME280;43627;42.728;23.256;2023-06-14T12:13:50;94671.44;;;26.39;52.33
57801;BME280;43627;42.728;23.256;2023-06-14T12:16:17;94682.44;;;26.89;49.94
57801;BME280;43627;42.728;23.256;2023-06-14T12:18:44;94686.13;;;27.26;50.67
57801;BME280;43627;42.728;23.256;2023-06-14T12:21:12;94681.50;;;26.76;49.80
57801;BME280;43627;42.728;23.256;2023-06-14T12:23:49;94678.81;;;26.27;54.41
57801;BME280;43627;42.728;23.256;2023-06-14T12:26:19;94680.06;;;25.91;55.62
57801;BME280;43627;42.728;23.256;2023-06-14T12:28:47;94674.13;;;26.29;55.00
57801;BME280;43627;42.728;23.256;2023-06-14T12:31:15;94676.47;;;26.40;51.89
57801;BME280;43627;42.728;23.256;2023-06-14T12:33:43;94683.31;;;26.47;51.84
57801;BME280;43627;42.728;23.256;2023-06-14T12:36:13;94667.78;;;26.54;51.91
57801;BME280;43627;42.728;23.256;2023-06-14T12:38:39;94666.34;;;26.62;51.49
57801;BME280;43627;42.728;23.256;2023-06-14T12:41:06;94667.22;;;26.30;51.06
57801;BME280;43627;42.728;23.256;2023-06-14T12:43:34;94664.41;;;26.13;51.21
57801;BME280;43627;42.728;23.256;2023-06-14T12:46:01;94649.03;;;26.22;53.37
57801;BME280;43627;42.728;23.256;2023-06-14T12:48:28;94651.53;;;26.17;51.51
57801;BME280;43627;42.728;23.256;2023-06-14T12:50:57;94655.06;;;26.35;51.54
57801;BME280;43627;42.728;23.256;2023-06-14T12:53:24;94645.94;;;26.69;51.54
57801;BME280;43627;42.728;23.256;2023-06-14T12:55:50;94643.38;;;26.81;49.30
57801;BME280;43627;42.728;23.256;2023-06-14T12:58:17;94639.81;;;26.98;49.13
57801;BME280;43627;42.728;23.256;2023-06-14T13:00:47;94627.78;;;27.22;47.93
57801;BME280;43627;42.728;23.256;2023-06-14T13:03:17;94645.19;;;27.57;46.01
57801;BME280;43627;42.728;23.256;2023-06-14T13:05:44;94645.94;;;26.87;46.72
57801;BME280;43627;42.728;23.256;2023-06-14T13:08:11;94649.09;;;26.73;53.60